createdAt,value
2019-04-10T00:00:35.786Z,3.93
2019-04-10T00:03:04.643Z,3.73
2019-04-10T00:05:33.964Z,4.30
2019-04-10T00:08:03.942Z,3.80
2019-04-10T00:10:32.822Z,3.87
2019-04-10T00:13:02.453Z,3.97
2019-04-10T00:15:31.110Z,3.97
2019-04-10T00:17:59.951Z,3.87
2019-04-10T00:20:28.837Z,3.80
2019-04-10T00:22:58.242Z,3.97
2019-04-10T00:25:27.167Z,3.80
2019-04-10T00:27:55.894Z,4.77
2019-04-10T00:30:25.075Z,3.90
2019-04-10T00:32:54.433Z,4.03
2019-04-10T00:35:23.635Z,3.90
2019-04-10T00:37:53.339Z,4.23
2019-04-10T00:40:22.132Z,4.40
2019-04-10T00:42:51.625Z,3.83
2019-04-10T00:45:21.601Z,3.63
2019-04-10T00:47:51.101Z,3.80
2019-04-10T00:50:24.509Z,3.77
2019-04-10T00:52:53.257Z,3.80
2019-04-10T00:55:22.021Z,4.40
2019-04-10T00:57:51.793Z,3.97
2019-04-10T01:00:22.014Z,4.00
2019-04-10T01:02:51.401Z,4.23
2019-04-10T01:05:20.189Z,4.00
2019-04-10T01:07:48.955Z,4.20
2019-04-10T01:10:17.871Z,3.80
2019-04-10T01:12:46.610Z,4.00
2019-04-10T01:15:15.348Z,3.53
2019-04-10T01:17:44.213Z,3.90
2019-04-10T01:20:14.244Z,3.70
2019-04-10T01:22:43.475Z,3.70
2019-04-10T01:25:12.484Z,4.00
2019-04-10T01:27:41.224Z,3.77
2019-04-10T01:30:10.561Z,3.50
2019-04-10T01:32:39.785Z,3.83
2019-04-10T01:35:09.822Z,3.83
2019-04-10T01:37:48.616Z,4.30
2019-04-10T01:40:10.720Z,3.60
2019-04-10T01:42:39.567Z,4.00
2019-04-10T01:45:09.249Z,3.60
2019-04-10T01:47:39.141Z,3.70
2019-04-10T01:50:10.479Z,3.43
2019-04-10T01:52:39.391Z,3.50
2019-04-10T01:55:17.034Z,4.07
2019-04-10T01:57:38.681Z,4.03
2019-04-10T02:00:09.257Z,3.73
2019-04-10T02:02:42.378Z,3.90
2019-04-10T02:05:16.481Z,3.57
2019-04-10T02:07:57.800Z,3.50
2019-04-10T02:10:17.054Z,3.50
2019-04-10T02:12:47.175Z,3.43
2019-04-10T02:15:16.218Z,3.50
2019-04-10T02:17:44.888Z,3.40
2019-04-10T02:20:14.669Z,3.90
2019-04-10T02:22:43.716Z,3.60
2019-04-10T02:25:13.695Z,3.70
2019-04-10T02:27:42.760Z,3.77
2019-04-10T02:30:14.660Z,4.00
2019-04-10T02:32:45.137Z,3.50
2019-04-10T02:35:16.686Z,3.33
2019-04-10T02:37:43.692Z,3.80
2019-04-10T02:40:12.890Z,3.90
2019-04-10T02:42:43.264Z,3.50
2019-04-10T02:45:14.710Z,3.60
2019-04-10T02:47:44.622Z,3.57
2019-04-10T02:50:14.315Z,3.90
2019-04-10T02:52:43.534Z,3.00
2019-04-10T02:55:12.216Z,3.80
2019-04-10T02:57:43.661Z,3.47
2019-04-10T03:00:13.349Z,3.90
2019-04-10T03:02:42.078Z,3.67
2019-04-10T03:05:11.084Z,3.90
2019-04-10T03:07:40.331Z,3.60
2019-04-10T03:10:20.536Z,3.50
2019-04-10T03:12:44.247Z,3.80
2019-04-10T03:15:14.901Z,3.50
2019-04-10T03:17:44.099Z,3.60
2019-04-10T03:20:14.056Z,3.30
2019-04-10T03:22:43.108Z,3.77
2019-04-10T03:25:14.909Z,3.30
2019-04-10T03:27:44.734Z,3.50
2019-04-10T03:30:15.294Z,3.00
2019-04-10T03:32:52.969Z,3.60
2019-04-10T03:35:18.689Z,3.37
2019-04-10T03:37:50.788Z,3.80
2019-04-10T03:40:19.887Z,3.80
2019-04-10T03:42:49.428Z,3.70
2019-04-10T03:45:18.444Z,3.70
2019-04-10T03:47:47.379Z,3.77
2019-04-10T03:50:16.413Z,3.90
2019-04-10T03:52:45.339Z,4.30
2019-04-10T03:55:14.190Z,4.00
2019-04-10T03:57:42.944Z,3.90
2019-04-10T04:00:14.060Z,4.37
2019-04-10T04:02:44.125Z,4.27
2019-04-10T04:05:13.015Z,4.13
2019-04-10T04:07:43.054Z,3.70
2019-04-10T04:10:12.812Z,3.77
2019-04-10T04:12:42.575Z,4.17
2019-04-10T04:15:11.507Z,4.03
2019-04-10T04:17:40.176Z,3.50
2019-04-10T04:20:08.919Z,3.80
2019-04-10T04:22:37.528Z,4.80
2019-04-10T04:25:07.272Z,4.57
2019-04-10T04:27:36.113Z,4.77
2019-04-10T04:30:10.557Z,5.00
2019-04-10T04:32:40.081Z,4.83
2019-04-10T04:35:09.106Z,5.87
2019-04-10T04:37:37.993Z,6.47
2019-04-10T04:40:06.978Z,6.90
2019-04-10T04:42:35.646Z,8.50
2019-04-10T04:45:05.292Z,8.07
2019-04-10T04:47:34.145Z,10.20
2019-04-10T04:50:03.571Z,10.10
2019-04-10T04:52:32.786Z,9.50
2019-04-10T04:55:01.919Z,7.70
2019-04-10T04:57:31.259Z,8.07
2019-04-10T05:00:01.150Z,7.63
2019-04-10T05:02:30.323Z,7.80
2019-04-10T05:05:00.309Z,7.30
2019-04-10T05:07:29.239Z,9.17
2019-04-10T05:10:00.172Z,9.30
2019-04-10T05:12:28.388Z,10.97
2019-04-10T05:14:57.220Z,9.27
2019-04-10T05:17:25.988Z,9.40
2019-04-10T05:19:55.533Z,10.23
2019-04-10T05:22:24.473Z,11.00
2019-04-10T05:24:55.005Z,11.13
2019-04-10T05:27:24.716Z,10.80
2019-04-10T05:29:53.800Z,12.13
2019-04-10T05:32:23.436Z,12.43
2019-04-10T05:34:52.459Z,12.13
2019-04-10T05:37:21.525Z,11.00
2019-04-10T05:39:51.953Z,12.30
2019-04-10T05:42:22.598Z,13.40
2019-04-10T05:44:52.292Z,13.20
2019-04-10T05:47:21.467Z,13.30
2019-04-10T05:49:50.454Z,12.63
2019-04-10T05:52:20.319Z,13.50
2019-04-10T05:54:49.355Z,12.73
2019-04-10T05:57:18.100Z,13.07
2019-04-10T05:59:47.993Z,12.60
2019-04-10T06:02:17.855Z,13.10
2019-04-10T06:04:48.154Z,13.30
2019-04-10T06:07:17.034Z,13.57
2019-04-10T06:09:54.054Z,11.83
2019-04-10T06:12:16.367Z,12.80
2019-04-10T06:14:46.269Z,12.80
2019-04-10T06:17:16.318Z,13.20
2019-04-10T06:19:45.123Z,13.60
2019-04-10T06:22:14.584Z,13.70
2019-04-10T06:24:44.570Z,14.10
2019-04-10T06:27:14.249Z,12.93
2019-04-10T06:29:43.464Z,13.20
2019-04-10T06:32:19.076Z,12.20
2019-04-10T06:34:48.180Z,12.37
2019-04-10T06:37:17.718Z,11.50
2019-04-10T06:39:46.607Z,11.40
2019-04-10T06:42:16.326Z,12.40
2019-04-10T06:44:46.058Z,12.37
2019-04-10T06:47:15.168Z,13.67
2019-04-10T06:49:44.014Z,14.50
2019-04-10T06:52:12.746Z,14.40
2019-04-10T06:54:41.670Z,13.57
2019-04-10T06:57:10.514Z,13.47
2019-04-10T06:59:39.866Z,14.50
2019-04-10T07:02:16.736Z,14.97
2019-04-10T07:04:46.043Z,14.00
2019-04-10T07:07:13.729Z,12.83
2019-04-10T07:09:40.567Z,11.80
2019-04-10T07:12:10.100Z,11.50
2019-04-10T07:14:44.061Z,10.87
2019-04-10T07:17:10.666Z,11.40
2019-04-10T07:19:41.492Z,11.10
2019-04-10T07:22:13.960Z,10.33
2019-04-10T07:24:42.463Z,11.07
2019-04-10T07:27:11.946Z,10.60
2019-04-10T07:29:40.904Z,11.13
2019-04-10T07:32:10.934Z,10.07
2019-04-10T07:34:40.341Z,10.60
2019-04-10T07:37:11.867Z,10.10
2019-04-10T07:39:39.727Z,10.23
2019-04-10T07:42:09.561Z,10.33
2019-04-10T07:44:38.681Z,10.60
2019-04-10T07:47:07.514Z,10.10
2019-04-10T07:49:38.932Z,9.97
2019-04-10T07:52:06.636Z,9.60
2019-04-10T07:54:36.722Z,9.50
2019-04-10T07:57:06.326Z,10.23
2019-04-10T07:59:35.548Z,10.50
2019-04-10T08:02:08.096Z,10.90
2019-04-10T08:04:35.354Z,10.40
2019-04-10T08:07:05.149Z,9.50
2019-04-10T08:09:33.875Z,9.13
2019-04-10T08:12:02.973Z,9.60
2019-04-10T08:14:31.786Z,9.47
2019-04-10T08:17:00.690Z,9.10
2019-04-10T08:19:29.904Z,9.77
2019-04-10T08:21:58.706Z,9.20
2019-04-10T08:24:28.026Z,9.30
2019-04-10T08:26:57.104Z,9.30
2019-04-10T08:29:26.031Z,10.30
2019-04-10T08:31:55.919Z,10.20
2019-04-10T08:34:25.993Z,9.77
2019-04-10T08:36:55.556Z,9.63
2019-04-10T08:39:35.341Z,9.00
2019-04-10T08:41:56.172Z,8.90
2019-04-10T08:44:25.114Z,9.10
2019-04-10T08:46:54.704Z,10.23
2019-04-10T08:49:23.493Z,9.90
2019-04-10T08:51:52.369Z,9.53
2019-04-10T08:54:21.086Z,9.53
2019-04-10T08:56:49.823Z,9.13
2019-04-10T08:59:23.683Z,8.97
2019-04-10T09:01:53.637Z,9.00
2019-04-10T09:04:22.654Z,9.70
2019-04-10T09:06:55.921Z,9.33
2019-04-10T09:09:25.731Z,8.93
2019-04-10T09:11:55.563Z,9.20
2019-04-10T09:14:25.225Z,10.10
2019-04-10T09:16:55.211Z,9.47
2019-04-10T09:19:24.083Z,9.80
2019-04-10T09:21:55.485Z,8.97
2019-04-10T09:24:25.785Z,10.47
2019-04-10T09:26:54.953Z,9.83
2019-04-10T09:29:24.710Z,9.07
2019-04-10T09:31:54.095Z,8.80
2019-04-10T09:34:23.406Z,8.63
2019-04-10T09:36:53.393Z,8.33
2019-04-10T09:39:23.505Z,8.50
2019-04-10T09:41:52.430Z,8.70
2019-04-10T09:44:21.181Z,9.27
2019-04-10T09:46:49.989Z,9.50
2019-04-10T09:49:31.849Z,8.67
2019-04-10T09:51:50.219Z,8.90
2019-04-10T09:54:19.062Z,9.13
2019-04-10T09:56:47.886Z,9.10
2019-04-10T09:59:16.730Z,9.10
2019-04-10T10:01:46.468Z,9.47
2019-04-10T10:04:15.892Z,9.10
2019-04-10T10:06:45.360Z,9.97
2019-04-10T10:09:14.822Z,9.60
2019-04-10T10:11:44.645Z,9.27
2019-04-10T10:14:14.508Z,9.33
2019-04-10T10:16:44.209Z,9.10
2019-04-10T10:19:14.585Z,9.70
2019-04-10T10:21:43.379Z,10.10
2019-04-10T10:24:12.216Z,9.13
2019-04-10T10:26:43.371Z,9.50
2019-04-10T10:29:11.586Z,9.13
2019-04-10T10:31:40.402Z,9.57
2019-04-10T10:34:10.315Z,9.07
2019-04-10T10:36:42.529Z,8.87
2019-04-10T10:39:19.066Z,9.97
2019-04-10T10:41:49.017Z,9.90
2019-04-10T10:44:18.456Z,8.73
2019-04-10T10:46:47.466Z,8.70
2019-04-10T10:49:16.238Z,8.47
2019-04-10T10:51:45.275Z,8.63
2019-04-10T10:54:14.319Z,8.80
2019-04-10T10:56:44.636Z,8.83
2019-04-10T10:59:14.093Z,9.10
2019-04-10T11:01:44.249Z,9.73
2019-04-10T11:04:13.071Z,9.67
2019-04-10T11:09:15.625Z,8.60
2019-04-10T11:11:45.394Z,9.00
2019-04-10T11:14:15.043Z,9.57
2019-04-10T11:16:45.396Z,8.43
2019-04-10T11:19:15.317Z,9.17
2019-04-10T11:21:45.114Z,9.40
2019-04-10T11:24:13.787Z,8.90
2019-04-10T11:26:42.709Z,9.90
2019-04-10T11:29:14.221Z,9.60
2019-04-10T11:31:43.048Z,9.00
2019-04-10T11:34:11.707Z,9.90
2019-04-10T11:36:42.410Z,8.90
2019-04-10T11:41:43.395Z,8.80
2019-04-10T11:44:14.308Z,9.47
2019-04-10T11:46:43.845Z,9.10
2019-04-10T11:49:14.337Z,8.80
2019-04-10T11:51:45.253Z,8.83
2019-04-10T11:54:15.289Z,8.57
2019-04-10T11:56:48.245Z,9.80
2019-04-10T11:59:14.630Z,8.57
2019-04-10T12:01:46.214Z,8.40
2019-04-10T12:04:14.722Z,8.00
2019-04-10T12:06:46.627Z,9.33
2019-04-10T12:10:00.126Z,9.90
2019-04-10T12:11:48.963Z,9.03
2019-04-10T12:14:17.766Z,9.10
2019-04-10T12:16:47.421Z,8.77
2019-04-10T12:19:17.283Z,8.80
2019-04-10T12:21:47.352Z,8.90
2019-04-10T12:24:16.665Z,8.47
2019-04-10T12:26:45.391Z,9.90
2019-04-10T12:29:14.431Z,8.87
2019-04-10T12:31:44.012Z,8.67
2019-04-10T12:34:14.866Z,8.83
2019-04-10T12:36:43.298Z,9.63
2019-04-10T12:39:12.427Z,9.57
2019-04-10T12:41:41.617Z,9.20
2019-04-10T12:44:11.590Z,9.60
2019-04-10T12:46:41.426Z,9.37
2019-04-10T12:49:10.239Z,9.23
2019-04-10T12:51:39.232Z,8.07
2019-04-10T12:54:08.027Z,9.10
2019-04-10T12:56:37.902Z,9.00
2019-04-10T12:59:07.033Z,9.10
2019-04-10T13:01:36.589Z,9.20
2019-04-10T13:04:05.578Z,9.13
2019-04-10T13:06:34.337Z,9.00
2019-04-10T13:09:09.464Z,9.10
2019-04-10T13:11:35.011Z,8.70
2019-04-10T13:14:03.758Z,9.60
2019-04-10T13:16:32.438Z,10.57
2019-04-10T13:19:01.274Z,9.37
2019-04-10T13:21:30.516Z,9.40
2019-04-10T13:23:59.505Z,9.40
2019-04-10T13:26:28.275Z,9.50
2019-04-10T13:28:59.960Z,10.30
2019-04-10T13:31:29.702Z,9.50
2019-04-10T13:33:58.400Z,10.43
2019-04-10T13:36:27.309Z,9.77
2019-04-10T13:38:56.095Z,10.87
2019-04-10T13:41:28.255Z,9.50
2019-04-10T13:43:58.108Z,9.53
2019-04-10T13:46:27.026Z,10.10
2019-04-10T13:48:55.683Z,10.20
2019-04-10T13:51:27.622Z,11.30
2019-04-10T13:54:02.169Z,10.90
2019-04-10T13:56:31.534Z,10.00
2019-04-10T13:59:00.751Z,10.67
2019-04-10T14:01:31.565Z,10.20
2019-04-10T14:04:00.827Z,10.33
2019-04-10T14:06:29.769Z,9.20
2019-04-10T14:09:14.983Z,9.57
2019-04-10T14:11:29.161Z,9.40
2019-04-10T14:13:58.113Z,10.07
2019-04-10T14:16:26.850Z,10.03
2019-04-10T14:18:55.711Z,10.10
2019-04-10T14:21:24.878Z,10.07
2019-04-10T14:23:53.780Z,10.80
2019-04-10T14:26:24.509Z,10.10
2019-04-10T14:28:53.562Z,10.97
2019-04-10T14:31:24.610Z,9.60
2019-04-10T14:33:53.974Z,11.00
2019-04-10T14:36:24.548Z,10.53
2019-04-10T14:38:53.427Z,10.30
2019-04-10T14:41:24.668Z,10.40
2019-04-10T14:43:53.675Z,10.20
2019-04-10T14:46:22.598Z,9.67
2019-04-10T14:48:52.057Z,9.07
2019-04-10T14:51:21.984Z,9.73
2019-04-10T14:53:51.133Z,9.97
2019-04-10T14:56:20.135Z,9.80
2019-04-10T14:58:48.940Z,10.40
2019-04-10T15:01:18.019Z,10.43
2019-04-10T15:03:46.769Z,9.53
2019-04-10T15:06:15.875Z,9.30
2019-04-10T15:08:45.977Z,9.87
2019-04-10T15:11:14.866Z,9.53
2019-04-10T15:13:43.586Z,9.80
2019-04-10T15:16:12.685Z,9.57
2019-04-10T15:18:41.311Z,9.80
2019-04-10T15:21:10.289Z,9.77
2019-04-10T15:23:39.196Z,10.40
2019-04-10T15:26:08.161Z,10.37
2019-04-10T15:28:36.844Z,10.13
2019-04-10T15:31:06.699Z,10.70
2019-04-10T15:33:35.683Z,9.30
2019-04-10T15:36:04.792Z,9.63
2019-04-10T15:38:35.772Z,10.20
2019-04-10T15:41:04.353Z,10.43
2019-04-10T15:43:33.805Z,11.60
2019-04-10T15:46:03.002Z,11.20
2019-04-10T15:48:31.709Z,10.80
2019-04-10T15:51:00.483Z,11.30
2019-04-10T15:53:29.295Z,11.23
2019-04-10T15:55:58.067Z,10.87
2019-04-10T15:58:27.760Z,11.90
2019-04-10T16:00:57.193Z,11.80
2019-04-10T16:03:26.231Z,11.40
2019-04-10T16:05:55.739Z,11.00
2019-04-10T16:08:24.632Z,11.10
2019-04-10T16:11:01.521Z,10.83
2019-04-10T16:13:32.548Z,10.23
2019-04-10T16:16:03.097Z,10.07
2019-04-10T16:18:32.554Z,10.87
2019-04-10T16:21:02.113Z,10.00
2019-04-10T16:23:35.627Z,11.97
2019-04-10T16:26:05.045Z,9.83
2019-04-10T16:28:33.821Z,10.00
2019-04-10T16:31:03.371Z,10.37
2019-04-10T16:33:32.119Z,9.27
2019-04-10T16:36:01.051Z,10.90
2019-04-10T16:38:31.086Z,10.90
2019-04-10T16:41:00.464Z,10.77
2019-04-10T16:43:30.530Z,10.83
2019-04-10T16:45:59.476Z,9.80
2019-04-10T16:48:28.352Z,9.67
2019-04-10T16:50:57.136Z,10.83
2019-04-10T16:53:25.879Z,10.50
2019-04-10T16:55:54.687Z,10.27
2019-04-10T16:58:23.505Z,11.37
2019-04-10T17:00:52.414Z,11.50
2019-04-10T17:03:21.814Z,10.87
2019-04-10T17:05:50.690Z,10.00
2019-04-10T17:08:19.678Z,10.37
2019-04-10T17:10:48.653Z,10.10
2019-04-10T17:13:18.303Z,10.87
2019-04-10T17:15:48.642Z,10.20
2019-04-10T17:18:17.635Z,10.20
2019-04-10T17:20:46.855Z,11.07
2019-04-10T17:23:16.406Z,10.80
2019-04-10T17:25:46.422Z,11.07
2019-04-10T17:28:16.419Z,10.33
2019-04-10T17:30:46.376Z,10.03
2019-04-10T17:33:16.455Z,10.27
2019-04-10T17:35:45.674Z,11.10
2019-04-10T17:38:14.524Z,10.37
2019-04-10T17:40:48.752Z,9.47
2019-04-10T17:43:13.873Z,10.97
2019-04-10T17:45:42.893Z,9.63
2019-04-10T17:48:11.740Z,10.23
2019-04-10T17:50:41.511Z,9.80
2019-04-10T17:53:11.519Z,10.30
2019-04-10T17:55:40.496Z,10.70
2019-04-10T17:58:09.564Z,10.97
2019-04-10T18:00:45.189Z,10.60
2019-04-10T18:03:17.670Z,10.50
2019-04-10T18:05:44.800Z,10.13
2019-04-10T18:08:13.618Z,10.33
2019-04-10T18:10:48.786Z,10.27
2019-04-10T18:13:13.409Z,10.40
2019-04-10T18:15:44.177Z,10.80
2019-04-10T18:18:13.659Z,10.30
2019-04-10T18:20:42.390Z,10.20
2019-04-10T18:23:11.401Z,10.60
2019-04-10T18:25:40.253Z,11.03
2019-04-10T18:28:09.611Z,10.40
2019-04-10T18:30:38.625Z,11.00
2019-04-10T18:33:08.051Z,10.40
2019-04-10T18:35:36.888Z,10.90
2019-04-10T18:38:05.777Z,10.47
2019-04-10T18:40:35.067Z,11.13
2019-04-10T18:43:04.340Z,10.63
2019-04-10T18:45:33.618Z,10.40
2019-04-10T18:48:02.794Z,9.73
2019-04-10T18:50:32.164Z,10.17
2019-04-10T18:53:01.595Z,10.03
2019-04-10T18:55:30.450Z,10.07
2019-04-10T18:57:59.316Z,11.20
2019-04-10T19:00:36.501Z,10.63
2019-04-10T19:03:23.560Z,9.93
2019-04-10T19:05:56.945Z,10.67
2019-04-10T19:08:26.084Z,11.17
2019-04-10T19:11:09.437Z,10.73
2019-04-10T19:13:25.277Z,9.77
2019-04-10T19:15:55.289Z,9.30
2019-04-10T19:18:24.353Z,9.80
2019-04-10T19:20:53.241Z,10.13
2019-04-10T19:23:22.749Z,9.80
2019-04-10T19:25:52.518Z,9.77
2019-04-10T19:28:30.028Z,10.33
2019-04-10T19:30:53.239Z,9.70
2019-04-10T19:33:22.067Z,10.73
2019-04-10T19:35:50.970Z,10.80
2019-04-10T19:38:21.083Z,10.27
2019-04-10T19:40:49.915Z,9.93
2019-04-10T19:43:18.778Z,10.10
2019-04-10T19:45:48.109Z,9.37
2019-04-10T19:48:17.233Z,9.97
2019-04-10T19:50:46.059Z,10.17
2019-04-10T19:53:15.134Z,10.37
2019-04-10T19:55:44.136Z,10.20
2019-04-10T19:58:14.132Z,10.30
2019-04-10T20:00:42.952Z,10.30
2019-04-10T20:03:11.749Z,9.77
2019-04-10T20:05:41.506Z,9.63
2019-04-10T20:08:12.806Z,10.03
2019-04-10T20:10:41.717Z,9.97
2019-04-10T20:13:10.499Z,9.97
2019-04-10T20:15:39.441Z,10.60
2019-04-10T20:18:08.584Z,10.00
2019-04-10T20:20:37.652Z,10.10
2019-04-10T20:23:06.827Z,11.00
2019-04-10T20:25:36.684Z,10.67
2019-04-10T20:28:06.701Z,10.60
2019-04-10T20:30:36.931Z,9.30
2019-04-10T20:33:06.371Z,10.83
2019-04-10T20:35:36.194Z,10.07
2019-04-10T20:38:05.064Z,10.70
2019-04-10T20:40:34.007Z,10.53
2019-04-10T20:43:02.819Z,10.37
2019-04-10T20:45:31.625Z,10.13
2019-04-10T20:48:00.547Z,8.83
2019-04-10T20:50:29.995Z,9.87
2019-04-10T20:52:59.766Z,10.40
2019-04-10T20:55:28.589Z,10.17
2019-04-10T20:57:57.369Z,10.20
2019-04-10T21:00:27.911Z,10.20
2019-04-10T21:02:56.905Z,9.67
2019-04-10T21:05:26.164Z,9.93
2019-04-10T21:07:55.069Z,10.30
2019-04-10T21:10:23.883Z,9.80
2019-04-10T21:12:52.630Z,9.50
2019-04-10T21:15:21.587Z,10.20
2019-04-10T21:17:50.806Z,10.97
2019-04-10T21:20:22.425Z,9.40
2019-04-10T21:22:51.487Z,10.70
2019-04-10T21:25:21.121Z,10.10
2019-04-10T21:27:51.923Z,10.40
2019-04-10T21:30:31.750Z,9.90
2019-04-10T21:33:05.827Z,9.40
2019-04-10T21:35:37.119Z,10.30
2019-04-10T21:38:06.832Z,9.93
2019-04-10T21:40:35.899Z,10.03
2019-04-10T21:43:05.865Z,9.97
2019-04-10T21:45:35.135Z,9.70
2019-04-10T21:48:03.909Z,9.50
2019-04-10T21:50:33.329Z,9.90
2019-04-10T21:53:02.083Z,9.43
2019-04-10T21:55:31.190Z,9.70
2019-04-10T21:57:59.862Z,9.27
2019-04-10T22:00:36.833Z,9.37
2019-04-10T22:03:06.974Z,10.20
2019-04-10T22:05:37.391Z,10.20
2019-04-10T22:08:10.965Z,10.03
2019-04-10T22:10:41.926Z,9.37
2019-04-10T22:13:11.355Z,9.60
2019-04-10T22:15:41.841Z,10.00
2019-04-10T22:18:13.400Z,10.00
2019-04-10T22:20:42.205Z,9.43
2019-04-10T22:23:11.715Z,9.63
2019-04-10T22:25:40.574Z,9.90
2019-04-10T22:28:09.389Z,9.70
2019-04-10T22:30:38.240Z,9.50
2019-04-10T22:33:07.642Z,10.77
2019-04-10T22:35:36.642Z,9.73
2019-04-10T22:38:05.507Z,10.50
2019-04-10T22:40:34.258Z,10.70
2019-04-10T22:43:03.352Z,9.77
2019-04-10T22:45:32.775Z,9.87
2019-04-10T22:48:01.708Z,9.67
2019-04-10T22:50:31.008Z,10.00
2019-04-10T22:53:00.929Z,10.20
2019-04-10T22:55:30.098Z,9.77
2019-04-10T22:57:58.788Z,10.70
2019-04-10T23:00:30.282Z,8.73
2019-04-10T23:02:59.131Z,10.30
2019-04-10T23:05:28.943Z,9.67
2019-04-10T23:07:58.922Z,9.93
2019-04-10T23:10:28.747Z,10.00
2019-04-10T23:13:01.695Z,9.07
2019-04-10T23:15:28.326Z,9.57
2019-04-10T23:17:57.244Z,9.63
2019-04-10T23:20:26.101Z,9.53
2019-04-10T23:22:54.924Z,9.87
2019-04-10T23:25:24.684Z,10.13
2019-04-10T23:27:56.674Z,9.13
2019-04-10T23:30:26.636Z,9.57
2019-04-10T23:32:55.631Z,9.10
2019-04-10T23:35:27.618Z,9.73
2019-04-10T23:37:57.399Z,10.73
2019-04-10T23:40:27.200Z,10.30
2019-04-10T23:43:07.474Z,9.57
2019-04-10T23:45:26.799Z,9.63
2019-04-10T23:47:56.202Z,9.73
2019-04-10T23:50:26.038Z,9.73
2019-04-10T23:52:56.236Z,9.50
2019-04-10T23:55:26.103Z,9.73
2019-04-10T23:57:55.885Z,9.67
